Terminal Aerodrome Forecast
Issued by NWS

Current Version | Previous Version | Text Only | Print | Product List | Glossary On
Versions: 1 2 3 4 5 6 7 8 9 10 11 12 13 14 15 16 17 18 19 20 21 22 23 24 25 26
000
FTUS43 KPAH 261100
TAFOWB
TAF
KOWB 261128Z 2612/2712 05003KT P6SM SCT200
     FM261800 11005KT P6SM BKN100
     FM262000 09003KT 6SM -RA BR OVC025
     FM270000 04004KT 3SM -RASN BR OVC015
     FM270300 05004KT 4SM -SN BR OVC012
     FM270800 32006KT 5SM BR OVC015=

USA.gov is the U.S. government's official web portal to all federal, state and local government web resources and services.